sensor_id;sensor_type;location;lat;lon;timestamp;temperature;humidity
65876;HTU21D;52657;51.128;5.938;2022-10-22T00:01:18;16.10;75.64
65876;HTU21D;52657;51.128;5.938;2022-10-22T00:03:44;16.07;75.50
65876;HTU21D;52657;51.128;5.938;2022-10-22T00:06:11;16.06;75.60
65876;HTU21D;52657;51.128;5.938;2022-10-22T00:08:37;16.05;75.59
65876;HTU21D;52657;51.128;5.938;2022-10-22T00:11:15;16.06;75.75
65876;HTU21D;52657;51.128;5.938;2022-10-22T00:13:42;16.04;75.60
65876;HTU21D;52657;51.128;5.938;2022-10-22T00:16:08;16.03;75.76
65876;HTU21D;52657;51.128;5.938;2022-10-22T00:18:35;16.03;75.70
65876;HTU21D;52657;51.128;5.938;2022-10-22T00:21:01;16.02;75.70
65876;HTU21D;52657;51.128;5.938;2022-10-22T00:23:27;16.02;75.78
65876;HTU21D;52657;51.128;5.938;2022-10-22T00:25:53;16.02;75.59
65876;HTU21D;52657;51.128;5.938;2022-10-22T00:28:19;16.00;75.47
65876;HTU21D;52657;51.128;5.938;2022-10-22T00:30:45;15.96;75.60
65876;HTU21D;52657;51.128;5.938;2022-10-22T00:33:11;15.93;75.73
65876;HTU21D;52657;51.128;5.938;2022-10-22T00:35:37;15.95;75.70
65876;HTU21D;52657;51.128;5.938;2022-10-22T00:38:03;15.96;75.86
65876;HTU21D;52657;51.128;5.938;2022-10-22T00:40:29;15.95;75.99
65876;HTU21D;52657;51.128;5.938;2022-10-22T00:42:55;15.92;76.15
65876;HTU21D;52657;51.128;5.938;2022-10-22T00:45:24;15.90;76.09
65876;HTU21D;52657;51.128;5.938;2022-10-22T00:47:52;15.90;76.00
65876;HTU21D;52657;51.128;5.938;2022-10-22T00:52:49;15.86;75.79
65876;HTU21D;52657;51.128;5.938;2022-10-22T00:55:17;15.84;75.65
65876;HTU21D;52657;51.128;5.938;2022-10-22T00:57:44;15.82;75.59
65876;HTU21D;52657;51.128;5.938;2022-10-22T01:00:11;15.81;75.64
65876;HTU21D;52657;51.128;5.938;2022-10-22T01:02:37;15.78;75.63
65876;HTU21D;52657;51.128;5.938;2022-10-22T01:05:03;15.76;75.80
65876;HTU21D;52657;51.128;5.938;2022-10-22T01:07:30;15.74;75.86
65876;HTU21D;52657;51.128;5.938;2022-10-22T01:10:02;15.74;76.06
65876;HTU21D;52657;51.128;5.938;2022-10-22T01:13:09;15.73;76.32
65876;HTU21D;52657;51.128;5.938;2022-10-22T01:16:24;15.70;76.31
65876;HTU21D;52657;51.128;5.938;2022-10-22T01:21:55;15.70;76.51
65876;HTU21D;52657;51.128;5.938;2022-10-22T01:24:44;15.70;76.30
65876;HTU21D;52657;51.128;5.938;2022-10-22T01:27:44;15.71;76.12
65876;HTU21D;52657;51.128;5.938;2022-10-22T01:30:13;15.72;76.20
65876;HTU21D;52657;51.128;5.938;2022-10-22T01:32:48;15.72;76.05
65876;HTU21D;52657;51.128;5.938;2022-10-22T01:35:21;15.72;76.12
65876;HTU21D;52657;51.128;5.938;2022-10-22T01:38:00;15.72;76.41
65876;HTU21D;52657;51.128;5.938;2022-10-22T01:40:29;15.69;76.63
65876;HTU21D;52657;51.128;5.938;2022-10-22T01:43:02;15.67;76.75
65876;HTU21D;52657;51.128;5.938;2022-10-22T01:45:33;15.63;76.82
65876;HTU21D;52657;51.128;5.938;2022-10-22T01:53:49;15.57;76.33
65876;HTU21D;52657;51.128;5.938;2022-10-22T01:58:51;15.52;75.97
65876;HTU21D;52657;51.128;5.938;2022-10-22T02:01:33;15.52;75.83
65876;HTU21D;52657;51.128;5.938;2022-10-22T02:06:36;15.48;75.70
65876;HTU21D;52657;51.128;5.938;2022-10-22T02:09:05;15.47;75.75
65876;HTU21D;52657;51.128;5.938;2022-10-22T02:11:32;15.45;75.60
65876;HTU21D;52657;51.128;5.938;2022-10-22T02:14:02;15.41;75.74
65876;HTU21D;52657;51.128;5.938;2022-10-22T02:16:49;15.39;75.75
65876;HTU21D;52657;51.128;5.938;2022-10-22T02:19:24;15.36;75.88
65876;HTU21D;52657;51.128;5.938;2022-10-22T02:21:51;15.33;75.95
65876;HTU21D;52657;51.128;5.938;2022-10-22T02:24:17;15.33;75.86
65876;HTU21D;52657;51.128;5.938;2022-10-22T02:27:01;15.27;75.85
65876;HTU21D;52657;51.128;5.938;2022-10-22T02:29:57;15.24;75.81
65876;HTU21D;52657;51.128;5.938;2022-10-22T02:32:33;15.19;75.92
65876;HTU21D;52657;51.128;5.938;2022-10-22T02:35:01;15.16;76.13
65876;HTU21D;52657;51.128;5.938;2022-10-22T02:37:29;15.13;76.21
65876;HTU21D;52657;51.128;5.938;2022-10-22T02:39:55;15.15;76.16
65876;HTU21D;52657;51.128;5.938;2022-10-22T02:42:24;15.15;76.08
65876;HTU21D;52657;51.128;5.938;2022-10-22T02:44:50;15.14;76.20
65876;HTU21D;52657;51.128;5.938;2022-10-22T02:47:16;15.16;76.43
65876;HTU21D;52657;51.128;5.938;2022-10-22T02:49:42;15.15;76.63
65876;HTU21D;52657;51.128;5.938;2022-10-22T02:52:08;15.15;76.73
65876;HTU21D;52657;51.128;5.938;2022-10-22T02:54:33;15.15;76.88
65876;HTU21D;52657;51.128;5.938;2022-10-22T02:56:59;15.14;76.95
65876;HTU21D;52657;51.128;5.938;2022-10-22T02:59:25;15.13;76.98
65876;HTU21D;52657;51.128;5.938;2022-10-22T03:01:50;15.10;76.98
65876;HTU21D;52657;51.128;5.938;2022-10-22T03:04:16;15.09;77.08
65876;HTU21D;52657;51.128;5.938;2022-10-22T03:06:42;15.08;77.11
65876;HTU21D;52657;51.128;5.938;2022-10-22T03:09:09;15.07;77.20
65876;HTU21D;52657;51.128;5.938;2022-10-22T03:11:35;15.06;77.07
65876;HTU21D;52657;51.128;5.938;2022-10-22T03:14:01;15.04;76.84
65876;HTU21D;52657;51.128;5.938;2022-10-22T03:16:27;15.03;76.66
65876;HTU21D;52657;51.128;5.938;2022-10-22T03:18:52;15.01;76.60
65876;HTU21D;52657;51.128;5.938;2022-10-22T03:21:36;15.01;76.37
65876;HTU21D;52657;51.128;5.938;2022-10-22T03:24:11;14.99;76.21
65876;HTU21D;52657;51.128;5.938;2022-10-22T03:26:40;14.98;76.15
65876;HTU21D;52657;51.128;5.938;2022-10-22T03:29:09;14.97;76.27
65876;HTU21D;52657;51.128;5.938;2022-10-22T03:31:35;14.96;76.19
65876;HTU21D;52657;51.128;5.938;2022-10-22T03:34:01;14.93;76.12
65876;HTU21D;52657;51.128;5.938;2022-10-22T03:36:27;14.92;76.33
65876;HTU21D;52657;51.128;5.938;2022-10-22T03:38:53;14.93;76.37
65876;HTU21D;52657;51.128;5.938;2022-10-22T03:41:19;14.92;76.55
65876;HTU21D;52657;51.128;5.938;2022-10-22T03:43:44;14.95;76.73
65876;HTU21D;52657;51.128;5.938;2022-10-22T03:46:14;14.92;77.32
65876;HTU21D;52657;51.128;5.938;2022-10-22T03:48:40;14.93;77.72
65876;HTU21D;52657;51.128;5.938;2022-10-22T03:51:06;14.95;77.92
65876;HTU21D;52657;51.128;5.938;2022-10-22T03:53:32;14.97;78.11
65876;HTU21D;52657;51.128;5.938;2022-10-22T03:55:57;14.97;78.14
65876;HTU21D;52657;51.128;5.938;2022-10-22T03:58:23;14.98;78.57
65876;HTU21D;52657;51.128;5.938;2022-10-22T04:00:49;14.98;78.54
65876;HTU21D;52657;51.128;5.938;2022-10-22T04:03:14;14.99;78.37
65876;HTU21D;52657;51.128;5.938;2022-10-22T04:05:40;14.99;78.37
65876;HTU21D;52657;51.128;5.938;2022-10-22T04:08:06;15.00;78.54
65876;HTU21D;52657;51.128;5.938;2022-10-22T04:10:31;15.01;78.64
65876;HTU21D;52657;51.128;5.938;2022-10-22T04:12:57;15.00;78.75
65876;HTU21D;52657;51.128;5.938;2022-10-22T04:15:23;15.03;78.89
65876;HTU21D;52657;51.128;5.938;2022-10-22T04:17:51;15.04;78.96
65876;HTU21D;52657;51.128;5.938;2022-10-22T04:20:17;15.06;79.11
65876;HTU21D;52657;51.128;5.938;2022-10-22T04:22:42;15.04;78.94
65876;HTU21D;52657;51.128;5.938;2022-10-22T04:25:08;15.07;79.07
65876;HTU21D;52657;51.128;5.938;2022-10-22T04:27:36;15.07;79.02
65876;HTU21D;52657;51.128;5.938;2022-10-22T04:30:03;15.08;79.13
65876;HTU21D;52657;51.128;5.938;2022-10-22T04:32:29;15.10;79.22
65876;HTU21D;52657;51.128;5.938;2022-10-22T04:34:55;15.10;79.20
65876;HTU21D;52657;51.128;5.938;2022-10-22T04:37:21;15.11;79.46
65876;HTU21D;52657;51.128;5.938;2022-10-22T04:39:47;15.12;79.53
65876;HTU21D;52657;51.128;5.938;2022-10-22T04:42:13;15.13;79.96
65876;HTU21D;52657;51.128;5.938;2022-10-22T04:44:38;15.15;80.04
65876;HTU21D;52657;51.128;5.938;2022-10-22T04:47:04;15.16;80.05
65876;HTU21D;52657;51.128;5.938;2022-10-22T04:49:30;15.15;79.87
65876;HTU21D;52657;51.128;5.938;2022-10-22T04:51:56;15.16;80.09
65876;HTU21D;52657;51.128;5.938;2022-10-22T04:54:21;15.18;80.00
65876;HTU21D;52657;51.128;5.938;2022-10-22T04:56:47;15.19;79.99
65876;HTU21D;52657;51.128;5.938;2022-10-22T04:59:13;15.18;80.17
65876;HTU21D;52657;51.128;5.938;2022-10-22T05:01:41;15.19;80.21
65876;HTU21D;52657;51.128;5.938;2022-10-22T05:04:12;15.22;80.11
65876;HTU21D;52657;51.128;5.938;2022-10-22T05:06:38;15.22;80.38
65876;HTU21D;52657;51.128;5.938;2022-10-22T05:09:06;15.27;80.69
65876;HTU21D;52657;51.128;5.938;2022-10-22T05:11:35;15.28;80.69
65876;HTU21D;52657;51.128;5.938;2022-10-22T05:14:04;15.31;80.78
65876;HTU21D;52657;51.128;5.938;2022-10-22T05:16:32;15.33;80.61
65876;HTU21D;52657;51.128;5.938;2022-10-22T05:18:59;15.33;80.40
65876;HTU21D;52657;51.128;5.938;2022-10-22T05:21:25;15.32;80.44
65876;HTU21D;52657;51.128;5.938;2022-10-22T05:23:53;15.36;80.55
65876;HTU21D;52657;51.128;5.938;2022-10-22T05:26:20;15.36;80.59
65876;HTU21D;52657;51.128;5.938;2022-10-22T05:28:47;15.41;80.72
65876;HTU21D;52657;51.128;5.938;2022-10-22T05:31:15;15.40;80.47
65876;HTU21D;52657;51.128;5.938;2022-10-22T05:33:42;15.42;80.62
65876;HTU21D;52657;51.128;5.938;2022-10-22T05:36:12;15.43;80.66
65876;HTU21D;52657;51.128;5.938;2022-10-22T05:38:38;15.46;80.72
65876;HTU21D;52657;51.128;5.938;2022-10-22T05:41:09;15.51;80.69
65876;HTU21D;52657;51.128;5.938;2022-10-22T05:43:36;15.51;80.71
65876;HTU21D;52657;51.128;5.938;2022-10-22T05:46:13;15.55;80.64
65876;HTU21D;52657;51.128;5.938;2022-10-22T05:48:39;15.54;80.72
65876;HTU21D;52657;51.128;5.938;2022-10-22T05:51:11;15.55;80.78
65876;HTU21D;52657;51.128;5.938;2022-10-22T05:53:40;15.57;80.96
65876;HTU21D;52657;51.128;5.938;2022-10-22T05:56:10;15.63;81.08
65876;HTU21D;52657;51.128;5.938;2022-10-22T05:58:37;15.69;80.82
65876;HTU21D;52657;51.128;5.938;2022-10-22T06:01:08;15.74;80.77
65876;HTU21D;52657;51.128;5.938;2022-10-22T06:03:35;15.80;80.72
65876;HTU21D;52657;51.128;5.938;2022-10-22T06:08:46;15.84;80.33
65876;HTU21D;52657;51.128;5.938;2022-10-22T06:11:12;15.88;80.24
65876;HTU21D;52657;51.128;5.938;2022-10-22T06:13:38;15.90;80.09
65876;HTU21D;52657;51.128;5.938;2022-10-22T06:16:04;15.95;79.97
65876;HTU21D;52657;51.128;5.938;2022-10-22T06:18:31;15.96;79.75
65876;HTU21D;52657;51.128;5.938;2022-10-22T06:21:05;15.98;79.52
65876;HTU21D;52657;51.128;5.938;2022-10-22T06:23:32;15.99;79.33
65876;HTU21D;52657;51.128;5.938;2022-10-22T06:25:58;15.99;79.22
65876;HTU21D;52657;51.128;5.938;2022-10-22T06:28:25;16.01;79.18
65876;HTU21D;52657;51.128;5.938;2022-10-22T06:30:51;16.02;79.01
65876;HTU21D;52657;51.128;5.938;2022-10-22T06:33:17;16.05;78.92
65876;HTU21D;52657;51.128;5.938;2022-10-22T06:35:42;16.05;78.84
65876;HTU21D;52657;51.128;5.938;2022-10-22T06:38:10;16.06;78.63
65876;HTU21D;52657;51.128;5.938;2022-10-22T06:40:36;16.06;78.58
65876;HTU21D;52657;51.128;5.938;2022-10-22T06:43:02;16.05;78.49
65876;HTU21D;52657;51.128;5.938;2022-10-22T06:45:28;16.06;78.46
65876;HTU21D;52657;51.128;5.938;2022-10-22T06:47:53;16.08;78.48
65876;HTU21D;52657;51.128;5.938;2022-10-22T06:50:20;16.11;78.37
65876;HTU21D;52657;51.128;5.938;2022-10-22T06:52:46;16.11;78.32
65876;HTU21D;52657;51.128;5.938;2022-10-22T06:55:12;16.08;78.21
65876;HTU21D;52657;51.128;5.938;2022-10-22T06:57:37;16.10;78.21
65876;HTU21D;52657;51.128;5.938;2022-10-22T07:00:05;16.10;78.27
65876;HTU21D;52657;51.128;5.938;2022-10-22T07:02:32;16.14;78.47
65876;HTU21D;52657;51.128;5.938;2022-10-22T07:04:57;16.22;78.63
65876;HTU21D;52657;51.128;5.938;2022-10-22T07:07:23;16.31;78.63
65876;HTU21D;52657;51.128;5.938;2022-10-22T07:09:49;16.40;78.56
65876;HTU21D;52657;51.128;5.938;2022-10-22T07:12:16;16.46;78.34
65876;HTU21D;52657;51.128;5.938;2022-10-22T07:14:42;16.55;78.32
65876;HTU21D;52657;51.128;5.938;2022-10-22T07:17:08;16.63;78.24
65876;HTU21D;52657;51.128;5.938;2022-10-22T07:19:34;16.73;78.05
65876;HTU21D;52657;51.128;5.938;2022-10-22T07:22:00;16.85;78.02
65876;HTU21D;52657;51.128;5.938;2022-10-22T07:24:27;17.01;77.88
65876;HTU21D;52657;51.128;5.938;2022-10-22T07:26:53;17.15;77.34
65876;HTU21D;52657;51.128;5.938;2022-10-22T07:29:18;17.29;76.92
65876;HTU21D;52657;51.128;5.938;2022-10-22T07:31:44;17.75;77.27
65876;HTU21D;52657;51.128;5.938;2022-10-22T07:34:10;18.43;76.02
65876;HTU21D;52657;51.128;5.938;2022-10-22T07:36:36;18.94;73.07
65876;HTU21D;52657;51.128;5.938;2022-10-22T07:39:02;19.40;70.84
65876;HTU21D;52657;51.128;5.938;2022-10-22T07:41:29;19.69;69.41
65876;HTU21D;52657;51.128;5.938;2022-10-22T07:43:56;19.67;67.49
65876;HTU21D;52657;51.128;5.938;2022-10-22T07:46:23;19.36;67.77
65876;HTU21D;52657;51.128;5.938;2022-10-22T07:48:49;19.07;68.13
65876;HTU21D;52657;51.128;5.938;2022-10-22T07:51:15;19.11;68.37
65876;HTU21D;52657;51.128;5.938;2022-10-22T07:53:41;19.20;68.63
65876;HTU21D;52657;51.128;5.938;2022-10-22T07:56:07;19.43;69.23
65876;HTU21D;52657;51.128;5.938;2022-10-22T07:58:33;19.61;68.17
65876;HTU21D;52657;51.128;5.938;2022-10-22T08:01:00;19.62;67.46
65876;HTU21D;52657;51.128;5.938;2022-10-22T08:03:29;19.60;67.39
65876;HTU21D;52657;51.128;5.938;2022-10-22T08:05:58;19.43;67.09
65876;HTU21D;52657;51.128;5.938;2022-10-22T08:08:24;19.17;67.62
65876;HTU21D;52657;51.128;5.938;2022-10-22T08:10:52;18.96;68.19
65876;HTU21D;52657;51.128;5.938;2022-10-22T08:13:18;18.83;68.91
65876;HTU21D;52657;51.128;5.938;2022-10-22T08:15:44;18.67;68.84
65876;HTU21D;52657;51.128;5.938;2022-10-22T08:18:11;18.49;69.42
65876;HTU21D;52657;51.128;5.938;2022-10-22T08:20:37;18.36;70.19
65876;HTU21D;52657;51.128;5.938;2022-10-22T08:23:03;18.29;70.44
65876;HTU21D;52657;51.128;5.938;2022-10-22T08:25:29;18.28;70.60
65876;HTU21D;52657;51.128;5.938;2022-10-22T08:27:54;18.23;70.65
65876;HTU21D;52657;51.128;5.938;2022-10-22T08:30:21;18.19;70.99
65876;HTU21D;52657;51.128;5.938;2022-10-22T08:32:47;18.14;71.17
65876;HTU21D;52657;51.128;5.938;2022-10-22T08:35:13;18.14;71.42
65876;HTU21D;52657;51.128;5.938;2022-10-22T08:37:41;18.14;71.61
65876;HTU21D;52657;51.128;5.938;2022-10-22T08:40:18;18.18;71.39
65876;HTU21D;52657;51.128;5.938;2022-10-22T08:50:57;18.42;71.34
65876;HTU21D;52657;51.128;5.938;2022-10-22T08:55:56;18.53;70.47
65876;HTU21D;52657;51.128;5.938;2022-10-22T08:58:36;18.62;70.46
65876;HTU21D;52657;51.128;5.938;2022-10-22T09:01:21;18.69;70.32
65876;HTU21D;52657;51.128;5.938;2022-10-22T09:04:14;18.78;69.97
65876;HTU21D;52657;51.128;5.938;2022-10-22T09:06:42;18.83;69.69
65876;HTU21D;52657;51.128;5.938;2022-10-22T09:09:14;18.89;69.50
65876;HTU21D;52657;51.128;5.938;2022-10-22T09:11:44;19.03;69.36
65876;HTU21D;52657;51.128;5.938;2022-10-22T09:14:23;19.11;68.70
65876;HTU21D;52657;51.128;5.938;2022-10-22T09:22:56;19.26;67.60
65876;HTU21D;52657;51.128;5.938;2022-10-22T09:25:28;19.28;67.13
65876;HTU21D;52657;51.128;5.938;2022-10-22T09:27:55;19.26;67.27
65876;HTU21D;52657;51.128;5.938;2022-10-22T09:30:30;19.28;67.18
65876;HTU21D;52657;51.128;5.938;2022-10-22T09:33:23;19.27;67.00
65876;HTU21D;52657;51.128;5.938;2022-10-22T09:36:02;19.17;66.83
65876;HTU21D;52657;51.128;5.938;2022-10-22T09:38:39;19.20;67.35
65876;HTU21D;52657;51.128;5.938;2022-10-22T09:41:06;19.24;67.19
65876;HTU21D;52657;51.128;5.938;2022-10-22T09:43:33;19.28;67.11
65876;HTU21D;52657;51.128;5.938;2022-10-22T09:46:07;19.37;67.07
65876;HTU21D;52657;51.128;5.938;2022-10-22T09:48:35;19.40;66.81
65876;HTU21D;52657;51.128;5.938;2022-10-22T09:51:14;19.46;66.71
65876;HTU21D;52657;51.128;5.938;2022-10-22T09:53:46;19.50;66.40
65876;HTU21D;52657;51.128;5.938;2022-10-22T09:56:35;19.51;66.32
65876;HTU21D;52657;51.128;5.938;2022-10-22T09:59:02;19.57;65.97
65876;HTU21D;52657;51.128;5.938;2022-10-22T10:01:36;19.60;66.08
65876;HTU21D;52657;51.128;5.938;2022-10-22T10:04:11;19.67;65.56
65876;HTU21D;52657;51.128;5.938;2022-10-22T10:06:40;19.72;65.27
65876;HTU21D;52657;51.128;5.938;2022-10-22T10:09:18;19.76;64.93
65876;HTU21D;52657;51.128;5.938;2022-10-22T10:11:53;19.77;64.74
65876;HTU21D;52657;51.128;5.938;2022-10-22T10:17:36;19.92;64.19
65876;HTU21D;52657;51.128;5.938;2022-10-22T10:23:15;20.10;63.50
65876;HTU21D;52657;51.128;5.938;2022-10-22T10:26:04;20.13;63.28
65876;HTU21D;52657;51.128;5.938;2022-10-22T10:31:44;20.15;62.97
65876;HTU21D;52657;51.128;5.938;2022-10-22T10:42:45;19.96;63.07
65876;HTU21D;52657;51.128;5.938;2022-10-22T10:45:50;19.96;63.69
65876;HTU21D;52657;51.128;5.938;2022-10-22T10:48:49;19.97;63.32
65876;HTU21D;52657;51.128;5.938;2022-10-22T10:51:31;19.89;63.15
65876;HTU21D;52657;51.128;5.938;2022-10-22T10:56:57;19.89;63.40
65876;HTU21D;52657;51.128;5.938;2022-10-22T11:11:21;19.87;63.39
65876;HTU21D;52657;51.128;5.938;2022-10-22T11:13:29;19.88;63.54
65876;HTU21D;52657;51.128;5.938;2022-10-22T11:19:11;20.03;64.14
65876;HTU21D;52657;51.128;5.938;2022-10-22T11:22:01;20.12;63.69
65876;HTU21D;52657;51.128;5.938;2022-10-22T11:24:52;20.18;63.44
65876;HTU21D;52657;51.128;5.938;2022-10-22T11:30:07;20.20;62.79
65876;HTU21D;52657;51.128;5.938;2022-10-22T11:32:39;20.21;63.07
65876;HTU21D;52657;51.128;5.938;2022-10-22T11:35:13;20.26;62.95
65876;HTU21D;52657;51.128;5.938;2022-10-22T11:37:43;20.30;62.86
65876;HTU21D;52657;51.128;5.938;2022-10-22T11:40:19;20.30;62.47
65876;HTU21D;52657;51.128;5.938;2022-10-22T11:42:52;20.30;62.26
65876;HTU21D;52657;51.128;5.938;2022-10-22T11:50:27;20.47;62.29
65876;HTU21D;52657;51.128;5.938;2022-10-22T12:01:25;20.77;61.74
65876;HTU21D;52657;51.128;5.938;2022-10-22T12:04:16;20.88;61.75
65876;HTU21D;52657;51.128;5.938;2022-10-22T12:09:23;20.93;60.50
65876;HTU21D;52657;51.128;5.938;2022-10-22T12:11:51;20.91;60.71
65876;HTU21D;52657;51.128;5.938;2022-10-22T12:14:53;20.93;60.75
65876;HTU21D;52657;51.128;5.938;2022-10-22T12:17:22;20.96;61.08
65876;HTU21D;52657;51.128;5.938;2022-10-22T12:20:06;21.01;60.75
65876;HTU21D;52657;51.128;5.938;2022-10-22T12:22:36;21.01;60.41
65876;HTU21D;52657;51.128;5.938;2022-10-22T12:25:20;20.99;60.49
65876;HTU21D;52657;51.128;5.938;2022-10-22T12:27:58;20.99;60.64
65876;HTU21D;52657;51.128;5.938;2022-10-22T12:30:32;21.01;60.64
65876;HTU21D;52657;51.128;5.938;2022-10-22T12:33:03;21.01;60.20
65876;HTU21D;52657;51.128;5.938;2022-10-22T12:35:32;20.99;60.43
65876;HTU21D;52657;51.128;5.938;2022-10-22T12:38:06;20.98;60.46
65876;HTU21D;52657;51.128;5.938;2022-10-22T12:40:34;20.94;60.09
65876;HTU21D;52657;51.128;5.938;2022-10-22T12:43:18;20.89;59.79
65876;HTU21D;52657;51.128;5.938;2022-10-22T12:45:50;20.88;60.22
65876;HTU21D;52657;51.128;5.938;2022-10-22T12:50:52;20.94;60.04
65876;HTU21D;52657;51.128;5.938;2022-10-22T12:55:51;20.93;60.03
65876;HTU21D;52657;51.128;5.938;2022-10-22T12:58:24;20.91;60.25
65876;HTU21D;52657;51.128;5.938;2022-10-22T13:00:58;20.92;60.22
65876;HTU21D;52657;51.128;5.938;2022-10-22T13:03:50;20.98;60.23
65876;HTU21D;52657;51.128;5.938;2022-10-22T13:11:37;21.09;60.12
65876;HTU21D;52657;51.128;5.938;2022-10-22T13:14:17;21.15;60.26
65876;HTU21D;52657;51.128;5.938;2022-10-22T13:17:46;21.21;59.90
65876;HTU21D;52657;51.128;5.938;2022-10-22T13:27:55;21.24;59.57
65876;HTU21D;52657;51.128;5.938;2022-10-22T13:30:28;21.20;59.56
65876;HTU21D;52657;51.128;5.938;2022-10-22T13:33:00;21.18;60.12
65876;HTU21D;52657;51.128;5.938;2022-10-22T13:35:35;21.18;59.90
65876;HTU21D;52657;51.128;5.938;2022-10-22T13:38:05;21.19;59.96
65876;HTU21D;52657;51.128;5.938;2022-10-22T13:40:37;21.23;59.96
65876;HTU21D;52657;51.128;5.938;2022-10-22T13:43:03;21.28;60.12
65876;HTU21D;52657;51.128;5.938;2022-10-22T13:45:29;21.31;59.79
65876;HTU21D;52657;51.128;5.938;2022-10-22T13:47:54;21.28;59.90
65876;HTU21D;52657;51.128;5.938;2022-10-22T13:50:21;21.25;59.87
65876;HTU21D;52657;51.128;5.938;2022-10-22T13:52:51;21.25;59.73
65876;HTU21D;52657;51.128;5.938;2022-10-22T13:55:23;21.20;59.30
65876;HTU21D;52657;51.128;5.938;2022-10-22T13:57:52;21.16;59.23
65876;HTU21D;52657;51.128;5.938;2022-10-22T14:00:21;21.14;59.51
65876;HTU21D;52657;51.128;5.938;2022-10-22T14:02:52;21.09;59.77
65876;HTU21D;52657;51.128;5.938;2022-10-22T14:05:19;21.11;59.89
65876;HTU21D;52657;51.128;5.938;2022-10-22T14:07:46;21.10;59.69
65876;HTU21D;52657;51.128;5.938;2022-10-22T14:10:21;21.10;59.79
65876;HTU21D;52657;51.128;5.938;2022-10-22T14:12:47;21.09;59.71
65876;HTU21D;52657;51.128;5.938;2022-10-22T14:15:16;21.08;59.98
65876;HTU21D;52657;51.128;5.938;2022-10-22T14:17:46;21.08;59.94
65876;HTU21D;52657;51.128;5.938;2022-10-22T14:20:17;21.05;59.71
65876;HTU21D;52657;51.128;5.938;2022-10-22T14:22:48;21.03;59.93
65876;HTU21D;52657;51.128;5.938;2022-10-22T14:25:21;21.03;59.89
65876;HTU21D;52657;51.128;5.938;2022-10-22T14:27:48;21.02;59.85
65876;HTU21D;52657;51.128;5.938;2022-10-22T14:30:20;21.06;60.18
65876;HTU21D;52657;51.128;5.938;2022-10-22T14:32:46;21.07;60.23
65876;HTU21D;52657;51.128;5.938;2022-10-22T14:35:17;21.10;59.86
65876;HTU21D;52657;51.128;5.938;2022-10-22T14:37:43;21.07;59.73
65876;HTU21D;52657;51.128;5.938;2022-10-22T14:40:13;21.03;58.51
65876;HTU21D;52657;51.128;5.938;2022-10-22T14:42:41;21.00;59.12
65876;HTU21D;52657;51.128;5.938;2022-10-22T14:45:19;21.02;59.29
65876;HTU21D;52657;51.128;5.938;2022-10-22T14:47:46;21.04;59.17
65876;HTU21D;52657;51.128;5.938;2022-10-22T14:50:13;21.08;59.61
65876;HTU21D;52657;51.128;5.938;2022-10-22T14:52:40;21.11;59.38
65876;HTU21D;52657;51.128;5.938;2022-10-22T14:55:12;21.09;59.19
65876;HTU21D;52657;51.128;5.938;2022-10-22T14:57:38;21.10;59.69
65876;HTU21D;52657;51.128;5.938;2022-10-22T15:00:11;21.09;59.89
65876;HTU21D;52657;51.128;5.938;2022-10-22T15:02:37;21.09;59.89
65876;HTU21D;52657;51.128;5.938;2022-10-22T15:05:03;21.10;60.07
65876;HTU21D;52657;51.128;5.938;2022-10-22T15:07:29;21.10;60.20
65876;HTU21D;52657;51.128;5.938;2022-10-22T15:09:54;21.10;60.54
65876;HTU21D;52657;51.128;5.938;2022-10-22T15:12:20;21.10;60.68
65876;HTU21D;52657;51.128;5.938;2022-10-22T15:14:46;21.08;60.76
65876;HTU21D;52657;51.128;5.938;2022-10-22T15:17:13;21.07;60.86
65876;HTU21D;52657;51.128;5.938;2022-10-22T15:19:39;21.03;60.60
65876;HTU21D;52657;51.128;5.938;2022-10-22T15:22:05;20.98;60.60
65876;HTU21D;52657;51.128;5.938;2022-10-22T15:24:31;20.94;61.25
65876;HTU21D;52657;51.128;5.938;2022-10-22T15:26:57;20.93;61.70
65876;HTU21D;52657;51.128;5.938;2022-10-22T15:29:23;20.89;61.11
65876;HTU21D;52657;51.128;5.938;2022-10-22T15:31:52;20.86;61.26
65876;HTU21D;52657;51.128;5.938;2022-10-22T15:34:21;20.80;62.10
65876;HTU21D;52657;51.128;5.938;2022-10-22T15:36:48;20.75;62.46
65876;HTU21D;52657;51.128;5.938;2022-10-22T15:39:14;20.65;61.95
65876;HTU21D;52657;51.128;5.938;2022-10-22T15:41:40;20.61;62.95
65876;HTU21D;52657;51.128;5.938;2022-10-22T15:44:07;20.62;62.69
65876;HTU21D;52657;51.128;5.938;2022-10-22T15:46:34;20.56;62.92
65876;HTU21D;52657;51.128;5.938;2022-10-22T15:49:00;20.50;62.91
65876;HTU21D;52657;51.128;5.938;2022-10-22T15:51:26;20.45;63.24
65876;HTU21D;52657;51.128;5.938;2022-10-22T15:53:57;20.41;63.07
65876;HTU21D;52657;51.128;5.938;2022-10-22T15:56:25;20.40;62.90
65876;HTU21D;52657;51.128;5.938;2022-10-22T15:59:01;20.35;63.10
65876;HTU21D;52657;51.128;5.938;2022-10-22T16:01:28;20.32;62.95
65876;HTU21D;52657;51.128;5.938;2022-10-22T16:03:54;20.28;62.98
65876;HTU21D;52657;51.128;5.938;2022-10-22T16:06:47;20.22;63.30
65876;HTU21D;52657;51.128;5.938;2022-10-22T16:09:17;20.18;63.45
65876;HTU21D;52657;51.128;5.938;2022-10-22T16:11:44;20.15;63.48
65876;HTU21D;52657;51.128;5.938;2022-10-22T16:14:11;20.12;63.58
65876;HTU21D;52657;51.128;5.938;2022-10-22T16:16:42;20.12;63.68
65876;HTU21D;52657;51.128;5.938;2022-10-22T16:19:09;20.11;63.82
65876;HTU21D;52657;51.128;5.938;2022-10-22T16:21:35;20.11;63.88
65876;HTU21D;52657;51.128;5.938;2022-10-22T16:24:01;20.06;63.92
65876;HTU21D;52657;51.128;5.938;2022-10-22T16:26:27;20.04;64.01
65876;HTU21D;52657;51.128;5.938;2022-10-22T16:28:53;20.02;64.08
65876;HTU21D;52657;51.128;5.938;2022-10-22T16:31:18;20.02;64.15
65876;HTU21D;52657;51.128;5.938;2022-10-22T16:33:44;19.97;63.98
65876;HTU21D;52657;51.128;5.938;2022-10-22T16:36:14;19.96;64.01
65876;HTU21D;52657;51.128;5.938;2022-10-22T16:38:39;19.92;64.15
65876;HTU21D;52657;51.128;5.938;2022-10-22T16:41:25;19.88;64.18
65876;HTU21D;52657;51.128;5.938;2022-10-22T16:43:58;19.86;64.30
65876;HTU21D;52657;51.128;5.938;2022-10-22T16:46:25;19.82;64.47
65876;HTU21D;52657;51.128;5.938;2022-10-22T16:48:52;19.74;64.66
65876;HTU21D;52657;51.128;5.938;2022-10-22T16:51:21;19.70;64.75
65876;HTU21D;52657;51.128;5.938;2022-10-22T16:53:50;19.65;65.01
65876;HTU21D;52657;51.128;5.938;2022-10-22T16:56:16;19.60;65.11
65876;HTU21D;52657;51.128;5.938;2022-10-22T16:58:50;19.57;65.12
65876;HTU21D;52657;51.128;5.938;2022-10-22T17:01:18;19.50;65.14
65876;HTU21D;52657;51.128;5.938;2022-10-22T17:03:45;19.43;65.37
65876;HTU21D;52657;51.128;5.938;2022-10-22T17:06:14;19.38;65.65
65876;HTU21D;52657;51.128;5.938;2022-10-22T17:08:40;19.33;65.68
65876;HTU21D;52657;51.128;5.938;2022-10-22T17:13:35;19.22;65.85
65876;HTU21D;52657;51.128;5.938;2022-10-22T17:16:03;19.15;65.94
65876;HTU21D;52657;51.128;5.938;2022-10-22T17:18:30;19.08;66.14
65876;HTU21D;52657;51.128;5.938;2022-10-22T17:20:56;19.05;66.43
65876;HTU21D;52657;51.128;5.938;2022-10-22T17:23:24;19.02;66.65